createdAt,value
2017-09-19T00:00:03.670Z,10.27
2017-09-19T00:02:03.951Z,10.38
2017-09-19T00:04:04.099Z,10.38
2017-09-19T00:06:04.344Z,10.38
2017-09-19T00:08:04.476Z,10.38
2017-09-19T00:10:04.095Z,10.38
2017-09-19T00:12:04.083Z,10.41
2017-09-19T00:14:04.308Z,10.41
2017-09-19T00:16:04.581Z,10.41
2017-09-19T00:18:03.756Z,10.38
2017-09-19T00:20:03.862Z,10.38
2017-09-19T00:22:04.083Z,10.41
2017-09-19T00:24:04.192Z,10.41
2017-09-19T00:26:04.236Z,10.41
2017-09-19T00:28:04.428Z,10.41
2017-09-19T00:30:03.528Z,10.41
2017-09-19T00:32:03.663Z,10.41
2017-09-19T00:34:03.832Z,10.41
2017-09-19T00:36:03.841Z,10.41
2017-09-19T00:38:04.054Z,10.41
2017-09-19T00:40:03.512Z,10.41
2017-09-19T00:42:03.601Z,10.41
2017-09-19T00:44:03.733Z,10.55
2017-09-19T00:46:03.973Z,10.41
2017-09-19T00:48:04.116Z,10.41
2017-09-19T00:50:04.293Z,10.43
2017-09-19T00:52:03.511Z,10.43
2017-09-19T00:54:03.694Z,10.43
2017-09-19T00:56:03.773Z,10.43
2017-09-19T00:58:03.946Z,10.43
2017-09-19T01:00:04.143Z,10.43
2017-09-19T01:02:04.309Z,10.43
2017-09-19T01:04:04.450Z,10.43
2017-09-19T01:06:03.839Z,10.43
2017-09-19T01:08:04.001Z,10.43
2017-09-19T01:10:04.668Z,10.57
2017-09-19T01:12:03.846Z,10.43
2017-09-19T01:14:04.262Z,10.43
2017-09-19T01:16:03.912Z,10.43
2017-09-19T01:18:04.101Z,10.43
2017-09-19T01:20:04.164Z,10.31
2017-09-19T01:22:04.327Z,10.57
2017-09-19T01:24:03.389Z,10.43
2017-09-19T01:26:03.749Z,10.43
2017-09-19T01:28:03.926Z,10.43
2017-09-19T01:30:04.104Z,10.43
2017-09-19T01:32:04.261Z,10.43
2017-09-19T01:34:04.489Z,10.43
2017-09-19T01:36:03.369Z,10.43
2017-09-19T01:38:03.576Z,10.31
2017-09-19T01:40:04.056Z,10.43
2017-09-19T01:42:04.262Z,10.43
2017-09-19T01:44:04.309Z,10.45
2017-09-19T01:46:03.608Z,10.45
2017-09-19T01:48:03.824Z,10.45
2017-09-19T01:50:04.088Z,10.45
2017-09-19T01:52:04.136Z,10.59
2017-09-19T01:54:04.522Z,10.45
2017-09-19T01:56:03.394Z,10.34
2017-09-19T01:58:03.555Z,10.34
2017-09-19T02:00:03.629Z,10.45
2017-09-19T02:02:03.838Z,10.45
2017-09-19T02:04:03.978Z,10.45
2017-09-19T02:06:04.169Z,10.45
2017-09-19T02:08:04.283Z,10.45
2017-09-19T02:10:03.651Z,10.45
2017-09-19T02:12:03.842Z,10.45
2017-09-19T02:14:03.935Z,10.45
2017-09-19T02:16:04.130Z,10.45
2017-09-19T02:18:04.342Z,10.45
2017-09-19T02:20:03.438Z,10.45
2017-09-19T02:22:03.659Z,10.45
2017-09-19T02:24:03.798Z,10.34
2017-09-19T02:26:03.908Z,10.45
2017-09-19T02:28:04.013Z,10.45
2017-09-19T02:30:04.152Z,10.45
2017-09-19T02:32:04.316Z,10.45
2017-09-19T02:34:03.446Z,10.45
2017-09-19T02:36:03.549Z,10.45
2017-09-19T02:38:03.687Z,10.45
2017-09-19T02:40:04.149Z,10.48
2017-09-19T02:42:04.253Z,10.48
2017-09-19T02:44:03.324Z,10.48
2017-09-19T02:46:03.629Z,10.48
2017-09-19T02:48:03.766Z,10.36
2017-09-19T02:50:03.886Z,10.45
2017-09-19T02:52:04.071Z,10.45
2017-09-19T02:54:04.151Z,10.48
2017-09-19T02:56:04.311Z,10.48
2017-09-19T02:58:03.526Z,10.48
2017-09-19T03:00:03.670Z,10.48
2017-09-19T03:02:03.800Z,10.48
2017-09-19T03:04:03.844Z,10.48
2017-09-19T03:06:04.057Z,10.45
2017-09-19T03:08:04.150Z,10.48
2017-09-19T03:10:03.617Z,10.48
2017-09-19T03:12:03.765Z,10.48
2017-09-19T03:14:03.927Z,10.48
2017-09-19T03:16:04.118Z,10.48
2017-09-19T03:18:04.233Z,10.48
2017-09-19T03:20:04.434Z,10.48
2017-09-19T03:22:03.599Z,10.48
2017-09-19T03:24:03.774Z,10.48
2017-09-19T03:26:03.912Z,10.48
2017-09-19T03:28:04.082Z,10.48
2017-09-19T03:30:04.254Z,10.48
2017-09-19T03:32:04.387Z,10.48
2017-09-19T03:34:03.511Z,10.48
2017-09-19T03:36:03.569Z,10.48
2017-09-19T03:38:03.708Z,10.48
2017-09-19T03:40:04.210Z,10.48
2017-09-19T03:42:04.237Z,10.48
2017-09-19T03:44:03.382Z,10.48
2017-09-19T03:46:03.927Z,10.48
2017-09-19T03:48:04.173Z,10.45
2017-09-19T03:50:04.411Z,10.48
2017-09-19T03:52:04.244Z,10.48
2017-09-19T03:54:04.534Z,10.48
2017-09-19T03:56:04.452Z,10.48
2017-09-19T03:58:03.691Z,10.48
2017-09-19T04:00:03.887Z,10.48
2017-09-19T04:02:04.180Z,10.48
2017-09-19T04:04:04.413Z,10.48
2017-09-19T04:06:04.334Z,10.48
2017-09-19T04:08:03.450Z,10.48
2017-09-19T04:10:03.849Z,10.48
2017-09-19T04:12:04.071Z,10.48
2017-09-19T04:14:04.281Z,10.48
2017-09-19T04:16:04.611Z,10.48
2017-09-19T04:18:03.892Z,10.48
2017-09-19T04:20:04.022Z,10.48
2017-09-19T04:22:04.215Z,10.48
2017-09-19T04:24:04.418Z,10.48
2017-09-19T04:26:03.822Z,10.48
2017-09-19T04:28:04.440Z,10.48
2017-09-19T04:30:03.690Z,10.48
2017-09-19T04:32:03.842Z,10.48
2017-09-19T04:34:04.124Z,10.48
2017-09-19T04:36:04.274Z,10.48
2017-09-19T04:38:04.257Z,10.48
2017-09-19T04:40:03.762Z,10.48
2017-09-19T04:42:03.878Z,10.48
2017-09-19T04:44:03.995Z,10.48
2017-09-19T04:46:05.807Z,10.48
2017-09-19T04:48:04.304Z,10.48
2017-09-19T04:50:03.486Z,10.48
2017-09-19T04:52:03.608Z,10.48
2017-09-19T04:54:03.742Z,10.48
2017-09-19T04:56:03.911Z,10.48
2017-09-19T04:58:04.020Z,10.48
2017-09-19T05:00:04.262Z,10.48
2017-09-19T05:02:04.406Z,10.48
2017-09-19T05:04:03.547Z,10.48
2017-09-19T05:06:03.676Z,10.43
2017-09-19T05:08:03.836Z,10.48
2017-09-19T05:10:04.244Z,10.48
2017-09-19T05:12:03.414Z,10.48
2017-09-19T05:14:08.670Z,10.48
2017-09-19T05:16:03.745Z,10.48
2017-09-19T05:18:03.938Z,10.48
2017-09-19T05:20:04.075Z,10.48
2017-09-19T05:22:04.175Z,10.48
2017-09-19T05:24:04.376Z,10.48
2017-09-19T05:26:03.546Z,10.48
2017-09-19T05:28:03.710Z,10.48
2017-09-19T05:30:03.907Z,10.48
2017-09-19T05:32:04.111Z,10.48
2017-09-19T05:34:04.230Z,10.48
2017-09-19T05:36:04.456Z,10.48
2017-09-19T05:38:03.590Z,10.48
2017-09-19T05:40:04.193Z,10.48
2017-09-19T05:42:04.301Z,10.48
2017-09-19T05:44:03.467Z,10.48
2017-09-19T05:46:03.852Z,10.48
2017-09-19T05:48:03.957Z,10.48
2017-09-19T05:50:04.058Z,10.48
2017-09-19T05:52:04.261Z,10.50
2017-09-19T05:54:04.516Z,10.48
2017-09-19T05:56:03.573Z,10.48
2017-09-19T05:58:03.722Z,10.50
2017-09-19T06:00:03.868Z,10.48
2017-09-19T06:02:04.066Z,10.50
2017-09-19T06:04:04.179Z,10.50
2017-09-19T06:06:04.382Z,10.50
2017-09-19T06:08:03.573Z,10.50
2017-09-19T06:10:04.056Z,10.50
2017-09-19T06:12:04.244Z,10.50
2017-09-19T06:14:04.485Z,10.50
2017-09-19T06:16:03.702Z,10.50
2017-09-19T06:18:03.871Z,10.50
2017-09-19T06:20:03.988Z,10.50
2017-09-19T06:22:04.235Z,10.50
2017-09-19T06:24:04.462Z,10.50
2017-09-19T06:26:03.663Z,10.50
2017-09-19T06:28:03.778Z,10.50
2017-09-19T06:30:03.929Z,10.50
2017-09-19T06:32:04.168Z,10.50
2017-09-19T06:34:04.311Z,10.50
2017-09-19T06:36:04.388Z,10.50
2017-09-19T06:38:03.535Z,10.50
2017-09-19T06:40:03.904Z,10.50
2017-09-19T06:42:04.026Z,10.50
2017-09-19T06:44:04.145Z,10.50
2017-09-19T06:46:04.360Z,10.50
2017-09-19T06:48:03.481Z,10.50
2017-09-19T06:50:03.616Z,10.50
2017-09-19T06:52:03.732Z,10.50
2017-09-19T06:54:03.899Z,10.50
2017-09-19T06:56:04.150Z,10.50
2017-09-19T06:58:03.878Z,10.50
2017-09-19T07:00:04.019Z,10.50
2017-09-19T07:02:04.148Z,10.50
2017-09-19T07:04:04.303Z,10.52
2017-09-19T07:06:03.601Z,10.50
2017-09-19T07:08:03.793Z,10.50
2017-09-19T07:10:04.343Z,10.50
2017-09-19T07:12:04.506Z,10.50
2017-09-19T07:14:03.640Z,10.52
2017-09-19T07:16:03.632Z,10.52
2017-09-19T07:18:03.766Z,10.52
2017-09-19T07:20:03.958Z,10.52
2017-09-19T07:22:04.035Z,10.52
2017-09-19T07:24:04.146Z,10.52
2017-09-19T07:26:04.373Z,10.52
2017-09-19T07:28:03.692Z,10.52
2017-09-19T07:30:03.710Z,10.52
2017-09-19T07:32:03.838Z,10.52
2017-09-19T07:34:03.918Z,10.52
2017-09-19T07:36:04.124Z,10.52
2017-09-19T07:38:04.318Z,10.55
2017-09-19T07:40:03.827Z,10.57
2017-09-19T07:42:03.906Z,10.71
2017-09-19T07:44:04.034Z,10.71
2017-09-19T07:46:04.159Z,10.76
2017-09-19T07:48:04.379Z,10.78
2017-09-19T07:50:03.524Z,10.76
2017-09-19T07:52:03.597Z,10.78
2017-09-19T07:54:03.741Z,10.76
2017-09-19T07:56:03.871Z,10.76
2017-09-19T07:58:04.071Z,10.74
2017-09-19T08:00:04.147Z,10.76
2017-09-19T08:02:04.304Z,10.76
2017-09-19T08:04:03.562Z,10.74
2017-09-19T08:06:03.739Z,10.74
2017-09-19T08:08:03.843Z,10.76
2017-09-19T08:10:04.303Z,10.76
2017-09-19T08:12:03.444Z,10.74
2017-09-19T08:14:03.631Z,10.76
2017-09-19T08:16:03.716Z,10.76
2017-09-19T08:18:03.907Z,10.76
2017-09-19T08:20:03.698Z,10.74
2017-09-19T08:22:03.894Z,10.71
2017-09-19T08:24:03.977Z,10.71
2017-09-19T08:26:04.195Z,10.71
2017-09-19T08:28:04.330Z,10.71
2017-09-19T08:30:03.446Z,10.71
2017-09-19T08:32:03.559Z,10.57
2017-09-19T08:34:03.770Z,10.69
2017-09-19T08:36:04.035Z,10.57
2017-09-19T08:38:04.126Z,10.57
2017-09-19T08:40:03.616Z,10.69
2017-09-19T08:42:03.671Z,10.57
2017-09-19T08:44:03.872Z,10.69
2017-09-19T08:46:03.890Z,10.57
2017-09-19T08:48:03.989Z,10.69
2017-09-19T08:50:04.130Z,10.69
2017-09-19T08:52:04.221Z,10.55
2017-09-19T08:54:03.354Z,10.67
2017-09-19T08:56:03.635Z,10.55
2017-09-19T08:58:03.718Z,10.67
2017-09-19T09:00:03.934Z,10.67
2017-09-19T09:02:04.054Z,10.55
2017-09-19T09:04:04.207Z,10.55
2017-09-19T09:06:04.336Z,10.67
2017-09-19T09:08:03.550Z,10.57
2017-09-19T09:10:03.973Z,10.69
2017-09-19T09:12:04.154Z,10.69
2017-09-19T09:14:04.302Z,10.57
2017-09-19T09:16:03.599Z,10.57
2017-09-19T09:18:03.750Z,10.55
2017-09-19T09:20:04.015Z,10.55
2017-09-19T09:22:04.263Z,10.55
2017-09-19T09:24:04.359Z,10.55
2017-09-19T09:26:04.425Z,10.57
2017-09-19T09:28:03.545Z,10.69
2017-09-19T09:30:03.666Z,10.57
2017-09-19T09:32:03.816Z,10.57
2017-09-19T09:34:03.978Z,10.55
2017-09-19T09:36:04.193Z,10.55
2017-09-19T09:38:04.360Z,10.55
2017-09-19T09:40:03.885Z,10.57
2017-09-19T09:42:04.011Z,10.55
2017-09-19T09:44:04.280Z,10.55
2017-09-19T09:46:04.449Z,10.59
2017-09-19T09:48:04.115Z,10.57
2017-09-19T09:50:04.288Z,10.69
2017-09-19T09:52:03.419Z,10.57
2017-09-19T09:54:03.603Z,10.57
2017-09-19T09:56:03.990Z,10.57
2017-09-19T09:58:04.132Z,10.57
2017-09-19T10:00:04.372Z,10.57
2017-09-19T10:02:03.612Z,10.57
2017-09-19T10:04:03.761Z,10.57
2017-09-19T10:06:03.791Z,10.57
2017-09-19T10:08:03.969Z,10.57
2017-09-19T10:10:03.440Z,10.74
2017-09-19T10:12:03.569Z,10.71
2017-09-19T10:14:03.681Z,10.71
2017-09-19T10:16:03.797Z,10.71
2017-09-19T10:18:03.926Z,10.74
2017-09-19T10:20:04.094Z,10.62
2017-09-19T10:22:04.244Z,10.59
2017-09-19T10:24:03.349Z,10.59
2017-09-19T10:26:03.757Z,10.59
2017-09-19T10:28:03.859Z,10.59
2017-09-19T10:30:04.121Z,10.69
2017-09-19T10:32:04.468Z,10.59
2017-09-19T10:34:03.673Z,10.57
2017-09-19T10:36:03.712Z,10.57
2017-09-19T10:38:03.933Z,10.57
2017-09-19T10:40:04.381Z,10.57
2017-09-19T10:42:03.451Z,10.57
2017-09-19T10:44:03.708Z,10.69
2017-09-19T10:46:03.712Z,10.57
2017-09-19T10:48:03.857Z,10.57
2017-09-19T10:50:03.977Z,10.57
2017-09-19T10:52:04.074Z,10.57
2017-09-19T10:54:04.181Z,10.57
2017-09-19T10:56:03.453Z,10.69
2017-09-19T10:58:03.724Z,10.57
2017-09-19T11:00:03.850Z,10.57
2017-09-19T11:02:05.225Z,10.57
2017-09-19T11:04:05.003Z,10.57
2017-09-19T11:06:04.496Z,10.69
2017-09-19T11:08:03.725Z,10.57
2017-09-19T11:10:04.255Z,10.57
2017-09-19T11:12:05.174Z,10.57
2017-09-19T11:14:04.542Z,10.55
2017-09-19T11:16:03.678Z,10.57
2017-09-19T11:18:03.728Z,10.71
2017-09-19T11:20:03.873Z,10.71
2017-09-19T11:22:04.058Z,10.57
2017-09-19T11:24:04.208Z,10.71
2017-09-19T11:26:04.353Z,10.71
2017-09-19T11:28:10.820Z,10.74
2017-09-19T11:30:03.596Z,10.76
2017-09-19T11:32:03.832Z,10.76
2017-09-19T11:34:03.840Z,10.76
2017-09-19T11:36:03.983Z,10.76
2017-09-19T11:38:04.336Z,10.88
2017-09-19T11:40:03.872Z,10.85
2017-09-19T11:42:04.033Z,10.85
2017-09-19T11:44:04.144Z,10.88
2017-09-19T11:46:04.301Z,10.88
2017-09-19T11:48:03.599Z,10.88
2017-09-19T11:50:03.775Z,10.88
2017-09-19T11:52:03.911Z,10.76
2017-09-19T11:54:03.975Z,10.76
2017-09-19T11:56:04.186Z,10.88
2017-09-19T11:58:04.367Z,10.76
2017-09-19T12:00:03.582Z,10.76
2017-09-19T12:02:03.797Z,10.76
2017-09-19T12:04:03.993Z,10.76
2017-09-19T12:06:04.132Z,10.76
2017-09-19T12:08:04.090Z,10.74
2017-09-19T12:10:04.049Z,10.76
2017-09-19T12:12:03.639Z,10.74
2017-09-19T12:14:03.979Z,10.74
2017-09-19T12:16:04.661Z,10.74
2017-09-19T12:18:04.875Z,10.76
2017-09-19T12:20:04.594Z,10.76
2017-09-19T12:22:04.216Z,10.78
2017-09-19T12:24:04.044Z,10.85
2017-09-19T12:26:03.876Z,10.85
2017-09-19T12:28:04.542Z,10.90
2017-09-19T12:30:04.246Z,10.92
2017-09-19T12:32:04.952Z,10.99
2017-09-19T12:34:03.572Z,11.01
2017-09-19T12:36:04.359Z,11.01
2017-09-19T12:38:04.453Z,11.01
2017-09-19T12:38:49.466Z,10.92
2017-09-19T12:42:05.149Z,10.92
2017-09-19T12:45:27.918Z,10.97
2017-09-19T12:45:59.211Z,10.97
2017-09-19T12:46:04.449Z,10.87
2017-09-19T12:47:44.159Z,10.87
2017-09-19T12:48:03.639Z,10.87
2017-09-19T12:50:03.840Z,10.90
2017-09-19T12:51:58.393Z,10.99
2017-09-19T12:52:04.021Z,10.99
2017-09-19T12:54:04.210Z,10.99
2017-09-19T12:56:04.173Z,10.99
2017-09-19T12:58:04.350Z,10.99
2017-09-19T12:59:25.127Z,10.99
2017-09-19T13:00:03.568Z,10.99
2017-09-19T13:01:19.608Z,10.99
2017-09-19T13:02:03.557Z,10.99
2017-09-19T13:04:03.722Z,10.99
2017-09-19T13:06:03.978Z,11.08
2017-09-19T13:08:04.233Z,11.08
2017-09-19T13:09:16.677Z,10.99
2017-09-19T13:10:03.956Z,10.99
2017-09-19T13:11:19.195Z,10.99
2017-09-19T13:12:04.109Z,10.99
2017-09-19T13:13:21.248Z,11.01
2017-09-19T13:14:04.387Z,11.01
2017-09-19T13:15:24.012Z,11.01
2017-09-19T13:16:04.951Z,11.01
2017-09-19T13:17:08.772Z,11.01
2017-09-19T13:17:20.862Z,11.01
2017-09-19T13:17:33.488Z,11.01
2017-09-19T13:18:03.719Z,11.16
2017-09-19T13:20:03.949Z,11.16
2017-09-19T13:22:03.988Z,11.13
2017-09-19T13:24:04.218Z,11.13
2017-09-19T13:26:04.269Z,11.16
2017-09-19T13:28:09.515Z,11.18
2017-09-19T13:30:03.909Z,11.18
2017-09-19T13:32:03.662Z,11.18
2017-09-19T13:34:03.835Z,11.16
2017-09-19T13:36:04.008Z,11.13
2017-09-19T13:38:04.143Z,11.16
2017-09-19T13:40:03.617Z,11.16
2017-09-19T13:42:03.753Z,11.16
2017-09-19T13:44:03.827Z,11.18
2017-09-19T13:46:04.271Z,11.20
2017-09-19T13:48:04.384Z,11.20
2017-09-19T13:50:05.138Z,11.20
2017-09-19T13:52:03.732Z,11.20
2017-09-19T13:54:03.640Z,11.20
2017-09-19T13:56:03.870Z,11.20
2017-09-19T13:58:04.380Z,11.20
2017-09-19T14:00:04.250Z,11.20
2017-09-19T14:02:05.021Z,11.20
2017-09-19T14:04:03.745Z,11.18
2017-09-19T14:06:03.628Z,11.18
2017-09-19T14:08:03.913Z,11.16
2017-09-19T14:10:04.404Z,11.16
2017-09-19T14:12:03.517Z,11.16
2017-09-19T14:14:03.853Z,11.16
2017-09-19T14:16:03.996Z,11.13
2017-09-19T14:18:04.356Z,11.13
2017-09-19T14:20:04.343Z,11.13
2017-09-19T14:22:03.879Z,11.11
2017-09-19T14:24:03.542Z,11.11
2017-09-19T14:26:04.219Z,11.11
2017-09-19T14:28:03.936Z,11.11
2017-09-19T14:30:04.103Z,11.09
2017-09-19T14:32:04.239Z,11.09
2017-09-19T14:34:04.457Z,11.09
2017-09-19T14:36:03.686Z,11.11
2017-09-19T14:38:03.876Z,11.09
2017-09-19T14:40:04.331Z,11.18
2017-09-19T14:42:05.067Z,11.11
2017-09-19T14:44:03.753Z,11.11
2017-09-19T14:46:04.337Z,11.11
2017-09-19T14:48:04.668Z,11.11
2017-09-19T14:50:04.841Z,11.11
2017-09-19T14:52:06.933Z,11.11
2017-09-19T14:54:10.958Z,11.11
2017-09-19T14:56:05.019Z,11.11
2017-09-19T14:56:22.540Z,11.11
2017-09-19T14:56:56.273Z,11.11
2017-09-19T14:58:04.371Z,11.11
2017-09-19T15:00:03.580Z,11.11
2017-09-19T15:00:32.815Z,11.11
2017-09-19T15:02:03.768Z,11.13
2017-09-19T15:04:03.952Z,11.16
2017-09-19T15:06:04.218Z,11.16
2017-09-19T20:46:21.489Z,10.83
2017-09-19T20:48:04.096Z,10.95
2017-09-19T20:50:04.333Z,10.95
2017-09-19T20:52:04.599Z,10.95
2017-09-19T20:54:03.969Z,10.95
2017-09-19T20:56:04.700Z,10.95
2017-09-19T20:58:03.751Z,10.83
2017-09-19T21:00:04.151Z,10.95
2017-09-19T21:02:04.349Z,10.95
2017-09-19T21:04:04.579Z,10.83
2017-09-19T21:06:03.919Z,10.92
2017-09-19T21:08:04.304Z,10.92
2017-09-19T21:10:03.902Z,10.95
2017-09-19T21:12:04.094Z,10.95
2017-09-19T21:14:04.415Z,10.80
2017-09-19T21:16:04.629Z,10.92
2017-09-19T21:18:03.965Z,10.92
2017-09-19T21:20:04.001Z,10.80
2017-09-19T21:22:04.190Z,10.80
2017-09-19T21:24:04.429Z,10.80
2017-09-19T21:26:03.861Z,10.92
2017-09-19T21:28:03.646Z,10.80
2017-09-19T21:30:03.847Z,10.92
2017-09-19T21:32:04.158Z,10.92
2017-09-19T21:34:04.307Z,10.92
2017-09-19T21:36:04.405Z,10.92
2017-09-19T21:38:03.711Z,10.92
2017-09-19T21:40:04.280Z,10.92
2017-09-19T21:42:04.459Z,10.92
2017-09-19T21:44:04.108Z,10.92
2017-09-19T21:46:03.928Z,10.92
2017-09-19T21:48:04.065Z,10.92
2017-09-19T21:50:04.304Z,10.92
2017-09-19T21:52:04.512Z,10.80
2017-09-19T21:54:03.572Z,10.80
2017-09-19T21:56:03.919Z,10.92
2017-09-19T21:58:04.294Z,10.92
2017-09-19T22:00:04.440Z,10.92
2017-09-19T22:02:03.659Z,10.92
2017-09-19T22:04:03.835Z,10.92
2017-09-19T22:06:04.235Z,10.92
2017-09-19T22:08:04.459Z,10.85
2017-09-19T22:10:04.003Z,10.80
2017-09-19T22:12:04.614Z,10.80
2017-09-19T22:14:04.865Z,10.92
2017-09-19T22:16:06.698Z,10.92
2017-09-19T22:18:05.377Z,10.80
2017-09-19T22:20:04.586Z,10.92
2017-09-19T22:22:05.441Z,10.92
2017-09-19T22:24:04.529Z,10.92
2017-09-19T22:26:04.582Z,10.92
2017-09-19T22:28:04.284Z,10.92
2017-09-19T22:30:04.461Z,10.78
2017-09-19T22:32:04.714Z,10.78
2017-09-19T22:34:04.344Z,10.78
2017-09-19T22:36:04.727Z,10.78
2017-09-19T22:38:04.613Z,10.92
2017-09-19T22:40:04.998Z,10.92
2017-09-19T22:42:05.341Z,10.92
2017-09-19T22:44:04.723Z,10.78
2017-09-19T22:46:04.303Z,10.78
2017-09-19T22:48:04.996Z,10.78
2017-09-19T22:50:03.621Z,10.92
2017-09-19T22:52:03.924Z,10.92
2017-09-19T22:54:04.593Z,10.92
2017-09-19T22:56:04.313Z,10.92
2017-09-19T22:58:04.485Z,10.92
2017-09-19T23:00:03.738Z,10.92
2017-09-19T23:02:03.922Z,10.92
2017-09-19T23:04:04.113Z,10.92
2017-09-19T23:06:04.530Z,10.90
2017-09-19T23:08:03.709Z,10.90
2017-09-19T23:10:04.283Z,10.90
2017-09-19T23:12:04.562Z,10.90
2017-09-19T23:14:03.806Z,10.90
2017-09-19T23:16:04.040Z,10.78
2017-09-19T23:18:04.384Z,11.04
2017-09-19T23:20:04.637Z,11.04
2017-09-19T23:22:03.877Z,10.90
2017-09-19T23:24:04.180Z,10.92
2017-09-19T23:26:04.207Z,10.78
2017-09-19T23:28:04.431Z,10.90
2017-09-19T23:30:03.640Z,10.90
2017-09-19T23:32:03.887Z,10.90
2017-09-19T23:34:03.997Z,10.90
2017-09-19T23:36:04.241Z,10.90
2017-09-19T23:38:04.399Z,10.90
2017-09-19T23:40:03.985Z,10.90
2017-09-19T23:42:04.157Z,10.90
2017-09-19T23:44:04.349Z,10.90
2017-09-19T23:46:04.509Z,10.90
2017-09-19T23:48:03.705Z,10.90
2017-09-19T23:50:03.908Z,10.90
2017-09-19T23:52:04.143Z,10.90
2017-09-19T23:54:04.340Z,10.90
2017-09-19T23:56:03.481Z,10.90
2017-09-19T23:58:03.696Z,10.90
